MET2568 - Amarillo to Kansas City

Bombardier Dash-8-Q200
838AH
1 hr 45 mins
414 nm
Scheduled - Daily

Bid/PiRep Status

Bid was submitted on October 4th, 2016 1:49 UTC.
PiRep # 73570: Approved by Dave Nichols on October 5th, 2016 3:40 UTC

Departure

Departing from
Amarillo (AMA)
Departure gate
A2
Scheduled Departure
GMT 0015
Local 1915
METAR KAMA 250153Z 00000KT 10SM CLR 16/M02 A2980 RMK AO2 SLP069 T01561017
TAF KAMA 242331Z 2500/2524 30009KT P6SM BKN250 FM250200 01008KT P6SM SCT250 FM250800 01016KT P6SM SCT250 FM251800 04007KT P6SM FEW250

Route Map

Planning Resources

PNH J26 ICT CNU.JHAWK6
PHN GAG ICT FRACA KMCI
KAMA BROKE ICT FRACA KMCI
KAMA-PNH-GAG-ICT-FOE-KMCI
KAMA UKDEW V12 EMP.JHAWK6 KMCI
Route:
OFP Layout:
Units:
Detailed Navlog:
ETOPS Planning:
Plan Stepclimbs:
Runway Analysis:
Include NOTAMS:
FIR NOTAMS:
Flight Maps:

Popularity

Hub Current Bids PiReps this month Total PiReps
KLAX 0 0 0
KBOS 0 0 0
KDFW 0 0 0